createdAt,value
2023-05-16T00:05:37.093Z,8.52
2023-05-16T00:15:40.154Z,8.32
2023-05-16T00:25:43.307Z,8.13
2023-05-16T00:35:46.436Z,8.05
2023-05-16T00:45:49.542Z,8.10
2023-05-16T00:55:53.072Z,7.94
2023-05-16T01:05:57.357Z,7.75
2023-05-16T01:16:24.689Z,7.39
2023-05-16T01:26:30.048Z,7.42
2023-05-16T01:36:39.243Z,7.23
2023-05-16T01:46:46.540Z,7.03
2023-05-16T01:56:55.525Z,6.93
2023-05-16T02:07:00.636Z,6.78
2023-05-16T02:17:04.037Z,6.77
2023-05-16T02:27:07.284Z,6.80
2023-05-16T02:37:13.052Z,6.72
2023-05-16T02:47:16.451Z,6.83
2023-05-16T02:57:19.702Z,6.91
2023-05-16T03:07:22.764Z,7.03
2023-05-16T03:17:28.660Z,7.04
2023-05-16T03:27:33.589Z,7.06
2023-05-16T03:37:36.706Z,7.31
2023-05-16T03:47:40.316Z,7.65
2023-05-16T03:57:43.990Z,7.89
2023-05-16T04:07:47.332Z,8.07
2023-05-16T04:17:50.400Z,8.29
2023-05-16T04:27:53.786Z,8.39
2023-05-16T04:37:57.089Z,8.77
2023-05-16T04:48:01.431Z,9.32
2023-05-16T04:58:04.576Z,9.95
2023-05-16T05:08:07.762Z,10.48
2023-05-16T05:18:11.174Z,11.11
2023-05-16T05:28:14.250Z,11.64
2023-05-16T05:38:17.329Z,12.31
2023-05-16T05:48:20.681Z,12.93
2023-05-16T05:58:23.738Z,13.64
2023-05-16T06:08:26.947Z,14.28
2023-05-16T06:18:30.175Z,15.00
2023-05-16T06:28:33.311Z,16.32
2023-05-16T06:38:36.575Z,17.42
2023-05-16T06:48:39.775Z,18.23
2023-05-16T06:58:42.818Z,19.01
2023-05-16T07:08:46.315Z,20.01
2023-05-16T07:18:49.682Z,20.77
2023-05-16T07:28:53.302Z,21.02
2023-05-16T07:38:56.459Z,21.10
2023-05-16T07:48:59.922Z,21.74
2023-05-16T07:59:06.128Z,22.43
2023-05-16T08:09:09.538Z,22.44
2023-05-16T08:19:12.752Z,22.24
2023-05-16T08:29:16.086Z,22.16
2023-05-16T08:39:19.133Z,22.05
2023-05-16T08:49:23.531Z,22.06
2023-05-16T08:59:27.310Z,21.96
2023-05-16T09:09:30.684Z,22.43
2023-05-16T09:19:41.615Z,22.56
2023-05-16T09:29:45.654Z,22.94
2023-05-16T09:39:51.184Z,22.87
2023-05-16T09:49:54.641Z,22.93
2023-05-16T10:00:01.669Z,22.97
2023-05-16T10:10:08.530Z,22.95
2023-05-16T10:20:12.952Z,23.38
2023-05-16T10:30:17.504Z,23.41
2023-05-16T10:40:22.240Z,23.19
2023-05-16T10:50:35.743Z,23.13
2023-05-16T11:00:39.925Z,22.64
2023-05-16T11:10:43.015Z,21.86
2023-05-16T11:20:46.190Z,20.95
2023-05-16T11:30:52.681Z,20.44
2023-05-16T11:41:02.330Z,20.20
2023-05-16T11:51:06.985Z,20.17
2023-05-16T12:01:10.455Z,20.05
2023-05-16T12:11:14.284Z,19.60
2023-05-16T12:21:17.572Z,19.36
2023-05-16T12:31:30.994Z,19.30
2023-05-16T12:41:42.329Z,19.30
2023-05-16T12:51:50.518Z,19.10
2023-05-16T13:01:53.979Z,18.63
2023-05-16T13:11:57.125Z,18.26
2023-05-16T13:22:00.403Z,17.78
2023-05-16T13:32:03.664Z,17.50
2023-05-16T13:42:06.764Z,17.61
2023-05-16T13:52:09.926Z,17.65
2023-05-16T14:02:12.927Z,17.47
2023-05-16T14:12:16.156Z,17.36
2023-05-16T14:22:19.530Z,17.23
2023-05-16T14:32:22.885Z,17.06
2023-05-16T14:42:26.153Z,17.34
2023-05-16T14:52:29.656Z,17.76
2023-05-16T15:02:32.742Z,17.50
2023-05-16T15:12:36.449Z,16.58
2023-05-16T15:22:41.349Z,15.82
2023-05-16T15:32:44.909Z,15.61
2023-05-16T15:42:48.157Z,15.45
2023-05-16T15:52:51.456Z,15.21
2023-05-16T16:02:54.783Z,14.99
2023-05-16T16:13:04.891Z,14.84
2023-05-16T16:23:08.387Z,14.73
2023-05-16T16:33:11.501Z,14.54
2023-05-16T16:43:15.055Z,14.34
2023-05-16T16:53:18.997Z,14.17
2023-05-16T17:03:22.220Z,14.05
2023-05-16T17:13:25.420Z,13.78
2023-05-16T17:23:28.819Z,13.56
2023-05-16T17:33:32.040Z,13.45
2023-05-16T17:43:35.147Z,13.40
2023-05-16T17:53:38.626Z,13.30
2023-05-16T18:03:43.498Z,13.17
2023-05-16T18:13:47.179Z,13.13
2023-05-16T18:23:50.498Z,13.07
2023-05-16T18:33:53.909Z,13.05
2023-05-16T18:43:57.045Z,13.10
2023-05-16T18:54:00.394Z,13.14
2023-05-16T19:04:04.064Z,13.11
2023-05-16T19:14:33.017Z,12.99
2023-05-16T19:24:38.048Z,12.93
2023-05-16T19:35:15.090Z,12.93
2023-05-16T19:45:30.886Z,13.05
2023-05-16T19:55:37.891Z,13.09
2023-05-16T20:05:41.644Z,13.02
2023-05-16T20:15:44.896Z,12.96
2023-05-16T20:25:48.178Z,12.99
2023-05-16T20:35:53.729Z,12.92
2023-05-16T20:45:57.139Z,12.74
2023-05-16T20:56:00.592Z,12.57
2023-05-16T21:06:03.983Z,12.48
2023-05-16T21:16:07.488Z,12.48
2023-05-16T21:26:10.688Z,12.49
2023-05-16T21:36:13.782Z,12.60
2023-05-16T21:46:16.836Z,12.69
2023-05-16T21:56:20.250Z,12.76
2023-05-16T22:06:24.469Z,12.79
2023-05-16T22:16:27.512Z,12.88
2023-05-16T22:26:30.660Z,13.03
2023-05-16T22:36:33.862Z,13.07
2023-05-16T22:46:37.085Z,13.00
2023-05-16T22:56:40.304Z,13.15
2023-05-16T23:06:43.350Z,13.33
2023-05-16T23:16:46.402Z,13.44
2023-05-16T23:26:49.725Z,13.49
2023-05-16T23:36:52.804Z,13.49
2023-05-16T23:46:55.995Z,13.56
2023-05-16T23:56:59.250Z,13.69
